Time;durP1;ratioP1;P1;durP2;ratioP2;P2;SDS_P1;SDS_P2;PMS_P1;PMS_P2;Temp;Humidity;BMP_temperature;BMP_pressure;BME280_temperature;BME280_humidity;BME280_pressure;Samples;Min_cycle;Max_cycle;Signal;HPM_P1;HPM_P2
2022/05/02 00:00:21;;;;;;;20.00;17.10;;;11.50;1.00;;;;;;5034186;28;20178;-83
2022/05/02 00:02:47;;;;;;;21.53;16.90;;;11.40;1.00;;;;;;5033704;28;20182;-82
2022/05/02 00:05:13;;;;;;;19.20;17.13;;;11.30;1.00;;;;;;5035634;28;20177;-81
2022/05/02 00:07:39;;;;;;;20.20;16.93;;;11.50;1.00;;;;;;5037754;28;20176;-84
2022/05/02 00:10:06;;;;;;;20.73;17.07;;;11.40;1.00;;;;;;5053052;28;20173;-84
2022/05/02 00:12:32;;;;;;;21.27;17.57;;;11.50;1.00;;;;;;5036417;28;20213;-83
2022/05/02 00:14:57;;;;;;;21.33;17.77;;;11.40;1.00;;;;;;5037862;28;20185;-84
2022/05/02 00:17:56;;;;;;;18.90;16.87;;;11.40;1.00;;;;;;5037804;28;20291;-79
2022/05/02 00:20:09;;;;;;;22.40;17.60;;;11.40;1.00;;;;;;5037839;28;20550;-83
2022/05/02 00:22:35;;;;;;;20.90;17.87;;;11.30;1.00;;;;;;5037340;28;20182;-82
2022/05/02 00:25:01;;;;;;;22.73;17.83;;;11.30;1.00;;;;;;5052986;28;20220;-84
2022/05/02 00:27:26;;;;;;;22.37;19.33;;;11.30;1.00;;;;;;5037408;28;20537;-84
2022/05/02 00:29:52;;;;;;;25.83;19.70;;;11.30;1.00;;;;;;5037891;28;20200;-84
2022/05/02 00:32:18;;;;;;;23.00;18.77;;;11.30;1.00;;;;;;5037041;28;20232;-83
2022/05/02 00:34:43;;;;;;;23.10;18.63;;;11.20;1.00;;;;;;5037587;28;20173;-83
2022/05/02 00:37:09;;;;;;;23.53;19.03;;;11.20;1.00;;;;;;5037712;28;20182;-84
2022/05/02 00:39:34;;;;;;;22.83;18.83;;;11.30;1.00;;;;;;5042386;28;20253;-81
2022/05/02 00:42:00;;;;;;;22.47;19.23;;;11.20;1.00;;;;;;5049551;28;20174;-80
2022/05/02 00:44:28;;;;;;;22.00;19.53;;;11.30;1.00;;;;;;5066753;28;20685;-84
2022/05/02 00:46:53;;;;;;;23.67;18.97;;;11.20;1.00;;;;;;5055027;28;20177;-82
2022/05/02 00:49:20;;;;;;;21.67;19.23;;;11.10;1.00;;;;;;5037070;28;20185;-84
2022/05/02 00:51:47;;;;;;;23.47;19.70;;;11.10;1.00;;;;;;5039156;28;20185;-81
2022/05/02 00:54:19;;;;;;;25.33;18.77;;;11.20;1.00;;;;;;5037361;28;20169;-83
2022/05/02 00:56:45;;;;;;;22.87;19.67;;;11.00;1.00;;;;;;5053471;28;20204;-80
2022/05/02 00:59:14;;;;;;;20.80;18.60;;;10.90;1.00;;;;;;5039134;28;20660;-85
2022/05/02 01:01:41;;;;;;;23.67;20.30;;;11.00;1.00;;;;;;5038484;28;20193;-83
2022/05/02 01:04:07;;;;;;;25.87;20.37;;;10.80;1.00;;;;;;5039555;28;20683;-83
2022/05/02 01:09:17;;;;;;;22.87;19.77;;;10.80;1.00;;;;;;5036742;28;20181;-83
2022/05/02 01:11:43;;;;;;;25.47;20.60;;;10.70;1.00;;;;;;5036244;28;20534;-83
2022/05/02 01:14:09;;;;;;;24.23;19.50;;;10.80;1.00;;;;;;5051139;28;20182;-81
2022/05/02 01:16:35;;;;;;;23.70;19.27;;;10.90;1.00;;;;;;5035593;28;20193;-82
2022/05/02 01:19:00;;;;;;;24.43;20.33;;;10.90;1.00;;;;;;5035754;28;20189;-84
2022/05/02 01:21:31;;;;;;;23.53;20.10;;;11.00;1.00;;;;;;5034853;28;20518;-85
2022/05/02 01:24:04;;;;;;;24.20;19.77;;;11.00;1.00;;;;;;5034966;28;20233;-84
2022/05/02 01:26:31;;;;;;;23.97;20.47;;;10.80;1.00;;;;;;5035347;28;20232;-83
2022/05/02 01:28:59;;;;;;;24.40;20.23;;;10.80;1.00;;;;;;5034567;28;20634;-82
2022/05/02 01:31:25;;;;;;;22.47;18.73;;;10.80;1.00;;;;;;5035729;28;20220;-81
2022/05/02 01:33:52;;;;;;;25.87;20.57;;;10.70;1.00;;;;;;5035824;28;20185;-84
2022/05/02 01:36:19;;;;;;;24.03;20.33;;;10.70;1.00;;;;;;5035659;28;20795;-83
2022/05/02 01:38:45;;;;;;;25.27;21.73;;;10.70;1.00;;;;;;5051352;28;20600;-83
2022/05/02 01:41:11;;;;;;;23.63;20.43;;;10.60;1.00;;;;;;5035661;28;20197;-84
2022/05/02 01:43:37;;;;;;;25.33;21.53;;;10.50;1.00;;;;;;5034257;28;20692;-83
2022/05/02 01:46:05;;;;;;;27.80;20.87;;;10.50;1.00;;;;;;5036246;28;20200;-84
2022/05/02 01:48:30;;;;;;;25.33;21.20;;;10.50;1.00;;;;;;5040856;28;20203;-84
2022/05/02 01:50:58;;;;;;;26.07;21.87;;;10.40;1.00;;;;;;5040994;28;20257;-82
2022/05/02 01:53:24;;;;;;;26.93;22.03;;;10.40;1.00;;;;;;5039778;28;20248;-84
2022/05/02 01:55:51;;;;;;;26.50;22.00;;;10.50;1.00;;;;;;5037816;28;20247;-84
2022/05/02 01:58:17;;;;;;;27.80;21.27;;;10.50;1.00;;;;;;5037814;28;20272;-82
2022/05/02 02:00:43;;;;;;;26.63;22.03;;;10.40;1.00;;;;;;5037753;28;20204;-81
2022/05/02 02:03:09;;;;;;;26.43;21.73;;;10.40;1.00;;;;;;5039063;28;20217;-83
2022/05/02 02:05:49;;;;;;;25.03;20.70;;;10.50;1.00;;;;;;5042062;28;20205;-80
2022/05/02 02:08:16;;;;;;;27.43;21.90;;;10.40;1.00;;;;;;5058395;28;20177;-80
2022/05/02 02:10:43;;;;;;;26.23;22.87;;;10.40;1.00;;;;;;5059209;28;20162;-81
2022/05/02 02:13:10;;;;;;;29.40;23.67;;;10.40;1.00;;;;;;5059244;28;20177;-83
2022/05/02 02:15:35;;;;;;;28.20;22.27;;;10.60;1.00;;;;;;5058751;28;20165;-82
2022/05/02 02:18:17;;;;;;;28.60;23.33;;;10.40;1.00;;;;;;5058618;28;20193;-82
2022/05/02 02:20:47;;;;;;;28.20;23.37;;;10.40;1.00;;;;;;5058048;28;20158;-80
2022/05/02 02:23:20;;;;;;;24.73;21.13;;;10.30;1.00;;;;;;5058465;28;20177;-81
2022/05/02 02:25:58;;;;;;;26.37;22.13;;;10.30;1.00;;;;;;5059258;28;20146;-81
2022/05/02 02:28:23;;;;;;;28.27;22.20;;;10.30;1.00;;;;;;5053512;28;20170;-82
2022/05/02 02:30:49;;;;;;;27.03;21.53;;;10.30;1.00;;;;;;5058496;28;20185;-81
2022/05/02 02:33:15;;;;;;;26.40;23.03;;;10.10;1.00;;;;;;5058590;28;20162;-80
2022/05/02 02:35:42;;;;;;;29.33;23.50;;;10.00;1.00;;;;;;5054443;28;20173;-78
2022/05/02 02:38:12;;;;;;;29.23;23.47;;;9.90;1.00;;;;;;5056739;28;20200;-82
2022/05/02 02:40:39;;;;;;;26.50;22.07;;;9.90;1.00;;;;;;5058599;28;20146;-80
2022/05/02 02:43:06;;;;;;;28.93;24.53;;;9.90;1.00;;;;;;5058199;28;20189;-81
2022/05/02 02:45:34;;;;;;;33.13;22.87;;;10.00;1.00;;;;;;5058160;28;20170;-80
2022/05/02 02:48:07;;;;;;;34.63;24.60;;;9.80;1.00;;;;;;5059065;28;20154;-80
2022/05/02 02:51:04;;;;;;;28.10;24.17;;;9.70;1.00;;;;;;5057520;28;20166;-80
2022/05/02 02:53:55;;;;;;;29.37;24.17;;;9.70;1.00;;;;;;5051596;28;20177;-83
2022/05/02 02:56:24;;;;;;;28.33;23.57;;;9.70;1.00;;;;;;5049267;28;20170;-81
2022/05/02 02:59:37;;;;;;;29.87;23.47;;;9.70;1.00;;;;;;5044503;28;20157;-82
2022/05/02 03:02:05;;;;;;;30.37;24.03;;;9.80;1.00;;;;;;5044755;28;20243;-81
2022/05/02 03:07:58;;;;;;;30.13;24.90;;;9.60;1.00;;;;;;5045031;28;20164;-82
2022/05/02 03:10:25;;;;;;;32.67;26.20;;;9.60;1.30;;;;;;5043514;28;20166;-81
2022/05/02 03:12:50;;;;;;;30.70;25.30;;;9.60;3.10;;;;;;5038009;28;20162;-83
2022/05/02 03:15:29;;;;;;;30.97;26.03;;;9.50;5.10;;;;;;5033160;28;20231;-82
2022/05/02 03:17:54;;;;;;;31.57;26.50;;;9.60;3.40;;;;;;5035037;28;20220;-82
2022/05/02 03:20:48;;;;;;;29.13;24.93;;;9.50;6.20;;;;;;5034273;28;20170;-83
2022/05/02 03:33:22;;;;;;;28.73;24.93;;;9.30;14.30;;;;;;5054183;28;20230;-80
2022/05/02 03:35:54;;;;;;;30.40;25.73;;;9.30;14.20;;;;;;5041506;28;20694;-79
2022/05/02 03:38:22;;;;;;;33.20;26.37;;;9.30;16.90;;;;;;5032772;28;20189;-84
2022/05/02 03:40:49;;;;;;;34.33;27.30;;;9.20;17.00;;;;;;5037887;28;20169;-81
2022/05/02 03:43:15;;;;;;;30.97;24.87;;;9.30;17.30;;;;;;5036984;28;20223;-84
2022/05/02 03:45:41;;;;;;;33.83;26.30;;;9.40;15.20;;;;;;5038047;28;20639;-84
2022/05/02 03:48:08;;;;;;;32.10;26.70;;;9.30;14.10;;;;;;5053394;28;20204;-83
2022/05/02 03:50:33;;;;;;;34.70;28.17;;;9.30;15.00;;;;;;5018783;28;20256;-84
2022/05/02 03:52:59;;;;;;;32.37;26.80;;;9.30;14.90;;;;;;5033004;28;20537;-81
2022/05/02 03:55:26;;;;;;;33.80;26.73;;;9.30;12.30;;;;;;5017316;28;20261;-82
2022/05/02 03:57:52;;;;;;;34.30;26.37;;;9.20;14.50;;;;;;5033564;28;20590;-84
2022/05/02 04:00:18;;;;;;;35.10;27.13;;;9.30;15.00;;;;;;5017886;28;20171;-82
2022/05/02 04:02:44;;;;;;;34.47;27.93;;;9.20;15.90;;;;;;5019227;28;20182;-83
2022/05/02 04:05:10;;;;;;;36.47;28.23;;;9.20;17.00;;;;;;5032848;28;20212;-84
2022/05/02 04:07:36;;;;;;;34.47;27.50;;;9.10;18.80;;;;;;5039180;28;20166;-85
2022/05/02 04:10:03;;;;;;;31.83;27.17;;;9.10;17.90;;;;;;5036910;28;20189;-83
2022/05/02 04:12:37;;;;;;;34.07;28.60;;;9.10;18.90;;;;;;5058679;28;20660;-84
2022/05/02 04:15:04;;;;;;;36.60;27.90;;;9.20;18.90;;;;;;5040813;28;20617;-83
2022/05/02 04:17:30;;;;;;;32.53;27.87;;;9.20;15.40;;;;;;5038040;28;20267;-83
2022/05/02 04:19:56;;;;;;;35.83;27.27;;;9.10;16.90;;;;;;5038739;28;20182;-81
2022/05/02 04:22:21;;;;;;;34.40;26.60;;;9.10;18.00;;;;;;5038603;28;20202;-81
2022/05/02 04:24:47;;;;;;;37.30;28.20;;;9.10;19.10;;;;;;5039551;28;20676;-83
2022/05/02 04:27:12;;;;;;;36.80;26.93;;;9.10;18.70;;;;;;5039226;28;20178;-84
2022/05/02 04:29:38;;;;;;;34.43;26.93;;;9.10;20.40;;;;;;5053914;28;20181;-83
2022/05/02 04:32:04;;;;;;;39.00;28.13;;;9.00;20.80;;;;;;5038365;28;20182;-83
2022/05/02 04:34:30;;;;;;;39.00;28.13;;;9.00;22.00;;;;;;5039370;28;20193;-82
2022/05/02 04:36:56;;;;;;;37.10;29.03;;;9.00;21.70;;;;;;5040628;28;20209;-83
2022/05/02 04:39:21;;;;;;;36.20;27.83;;;9.10;23.60;;;;;;5044655;28;20174;-82
2022/05/02 04:41:48;;;;;;;34.63;27.10;;;9.00;21.80;;;;;;5055462;28;20181;-82
2022/05/02 04:44:14;;;;;;;39.73;27.53;;;9.10;22.80;;;;;;5057105;28;20205;-83
2022/05/02 04:46:40;;;;;;;35.10;26.87;;;9.10;19.80;;;;;;5055804;28;20166;-80
2022/05/02 04:49:05;;;;;;;37.03;28.57;;;9.20;19.60;;;;;;5057285;28;20192;-82
2022/05/02 04:51:31;;;;;;;34.43;27.10;;;9.00;21.70;;;;;;5056118;28;20154;-81
2022/05/02 04:54:03;;;;;;;40.13;28.80;;;9.10;21.40;;;;;;5045602;28;20180;-82
2022/05/02 04:56:31;;;;;;;36.97;29.07;;;9.00;21.60;;;;;;5060480;28;20174;-82
2022/05/02 04:58:57;;;;;;;36.40;28.37;;;9.20;21.90;;;;;;5048672;28;20607;-82
2022/05/02 05:01:23;;;;;;;34.70;27.30;;;9.10;21.10;;;;;;5044462;28;20191;-80
2022/05/02 05:03:48;;;;;;;39.07;26.80;;;9.10;19.50;;;;;;5056194;28;20229;-81
2022/05/02 05:06:14;;;;;;;38.30;29.60;;;9.10;20.30;;;;;;5037314;28;20185;-84
2022/05/02 05:08:40;;;;;;;36.80;30.07;;;9.20;19.90;;;;;;5037113;28;20186;-82
2022/05/02 05:11:28;;;;;;;38.13;28.47;;;9.30;18.90;;;;;;5036742;28;20181;-83
2022/05/02 05:16:55;;;;;;;41.47;28.53;;;9.30;12.80;;;;;;5042168;28;20209;-84
2022/05/02 05:19:42;;;;;;;35.80;28.10;;;9.40;12.20;;;;;;5040564;28;20585;-80
2022/05/02 05:22:33;;;;;;;44.33;27.10;;;9.50;8.00;;;;;;5044606;28;20161;-84
2022/05/02 05:25:16;;;;;;;34.20;28.00;;;9.50;4.60;;;;;;5044994;28;20205;-81
2022/05/02 05:28:09;;;;;;;37.67;27.87;;;9.60;3.50;;;;;;5065258;28;20200;-83
2022/05/02 05:30:44;;;;;;;36.30;27.20;;;9.80;1.00;;;;;;5054208;28;20174;-80
2022/05/02 05:33:39;;;;;;;34.83;25.30;;;10.00;1.00;;;;;;5052158;28;20589;-81
2022/05/02 05:36:31;;;;;;;34.97;27.70;;;10.00;1.00;;;;;;5045831;28;20173;-85
2022/05/02 05:39:10;;;;;;;34.90;27.20;;;10.00;1.00;;;;;;5055620;28;20166;-84
2022/05/02 05:41:55;;;;;;;36.17;28.07;;;10.20;1.00;;;;;;5072919;28;20180;-82
2022/05/02 05:44:43;;;;;;;37.30;27.37;;;10.30;1.00;;;;;;5057493;28;20213;-85
2022/05/02 05:47:20;;;;;;;34.63;27.47;;;10.40;1.00;;;;;;5036535;28;20170;-84
2022/05/02 05:50:16;;;;;;;36.67;27.27;;;10.40;1.00;;;;;;5034113;28;20303;-84
2022/05/02 05:52:50;;;;;;;37.43;26.40;;;10.40;1.00;;;;;;5035202;28;20166;-84
2022/05/02 05:55:26;;;;;;;35.17;28.03;;;10.50;1.00;;;;;;5031599;28;20236;-83
2022/05/02 05:57:57;;;;;;;36.93;26.90;;;10.50;1.00;;;;;;5030972;28;20181;-82
2022/05/02 06:00:28;;;;;;;30.43;26.40;;;10.50;1.00;;;;;;5034917;28;20177;-82
2022/05/02 06:03:15;;;;;;;34.67;26.33;;;10.50;1.00;;;;;;5035038;28;20193;-83
2022/05/02 06:05:43;;;;;;;30.07;26.37;;;10.40;1.00;;;;;;5034162;28;20196;-80
2022/05/02 06:08:29;;;;;;;35.00;26.30;;;10.50;1.00;;;;;;5044421;28;20181;-78
2022/05/02 06:10:58;;;;;;;33.03;26.80;;;10.60;1.00;;;;;;5036397;28;20178;-78
2022/05/02 06:13:29;;;;;;;40.33;28.30;;;10.80;1.00;;;;;;5036840;28;20173;-78
2022/05/02 06:18:42;;;;;;;33.10;25.80;;;11.00;1.00;;;;;;5036084;28;20530;-78
2022/05/02 06:21:08;;;;;;;35.23;25.80;;;11.20;1.00;;;;;;5035981;28;20185;-82
2022/05/02 06:23:46;;;;;;;33.60;25.73;;;11.30;1.00;;;;;;5034604;28;20198;-79
2022/05/02 06:26:16;;;;;;;31.47;24.77;;;11.30;1.00;;;;;;5040514;28;20554;-80
2022/05/02 06:28:43;;;;;;;31.57;24.17;;;11.40;1.00;;;;;;5038031;28;20173;-79
2022/05/02 06:31:18;;;;;;;27.93;23.53;;;11.40;1.00;;;;;;5036878;28;20170;-80
2022/05/02 06:33:52;;;;;;;27.23;23.33;;;11.40;1.00;;;;;;5037895;28;20662;-79
2022/05/02 06:36:48;;;;;;;31.37;23.73;;;11.40;1.00;;;;;;5034056;28;20204;-81
2022/05/02 06:39:47;;;;;;;29.57;22.97;;;11.40;1.00;;;;;;5034559;28;20158;-80
2022/05/02 06:42:37;;;;;;;27.77;21.97;;;11.40;1.00;;;;;;5034859;28;20247;-82
2022/05/02 06:45:29;;;;;;;28.90;22.40;;;11.40;1.00;;;;;;5033326;28;20220;-83
2022/05/02 06:48:29;;;;;;;30.23;22.93;;;11.40;1.00;;;;;;5034437;28;20255;-83
2022/05/02 06:51:06;;;;;;;33.30;23.70;;;11.50;1.00;;;;;;5012853;28;20190;-82
2022/05/02 06:53:54;;;;;;;31.87;24.27;;;11.50;1.00;;;;;;5050176;28;20184;-77
2022/05/02 06:56:25;;;;;;;29.27;22.33;;;11.70;1.00;;;;;;5034394;28;20287;-80
2022/05/02 06:59:26;;;;;;;31.73;23.90;;;11.80;1.00;;;;;;5032327;28;20637;-83
2022/05/02 07:01:56;;;;;;;29.53;22.87;;;11.90;1.00;;;;;;5033836;28;20177;-78
2022/05/02 07:04:42;;;;;;;28.80;23.50;;;12.00;1.00;;;;;;5034627;28;20213;-84
2022/05/02 07:07:46;;;;;;;29.10;22.83;;;12.20;1.00;;;;;;5035192;28;20569;-82
2022/05/02 07:10:24;;;;;;;33.33;23.00;;;12.30;1.00;;;;;;5041998;28;20189;-78
2022/05/02 07:12:56;;;;;;;30.67;21.00;;;12.50;1.00;;;;;;5041884;28;20161;-82
2022/05/02 07:15:45;;;;;;;27.73;21.20;;;12.50;1.00;;;;;;5037564;28;20269;-84
2022/05/02 07:18:49;;;;;;;30.37;22.90;;;12.40;1.00;;;;;;5035642;28;20178;-79
2022/05/02 07:21:39;;;;;;;28.07;20.20;;;12.60;99.90;;;;;;5028323;28;20181;-82
2022/05/02 07:24:13;;;;;;;24.80;19.43;;;12.60;99.90;;;;;;5034845;28;20201;-80
2022/05/02 07:26:41;;;;;;;26.67;20.80;;;12.70;99.90;;;;;;5035111;28;20179;-78
2022/05/02 07:29:09;;;;;;;25.30;20.83;;;12.70;99.90;;;;;;5045522;28;20165;-81
2022/05/02 07:31:35;;;;;;;27.77;20.43;;;12.70;99.90;;;;;;5056026;28;20150;-79
2022/05/02 07:34:02;;;;;;;24.93;20.20;;;12.80;99.90;;;;;;5054525;28;20189;-82
2022/05/02 07:36:31;;;;;;;24.10;19.53;;;12.90;99.90;;;;;;5046243;28;20283;-80
2022/05/02 07:39:05;;;;;;;25.50;18.83;;;13.00;99.90;;;;;;5034322;28;20244;-80
2022/05/02 07:41:32;;;;;;;23.90;18.83;;;13.10;99.90;;;;;;5032693;28;20280;-80
2022/05/02 07:44:09;;;;;;;21.83;17.57;;;13.20;1.00;;;;;;5015115;28;20678;-82
2022/05/02 07:46:37;;;;;;;22.37;17.40;;;13.10;1.00;;;;;;5015363;28;20220;-79
2022/05/02 07:49:04;;;;;;;24.80;19.10;;;13.20;1.00;;;;;;5033856;28;20200;-82
2022/05/02 07:51:32;;;;;;;23.73;18.60;;;13.30;1.00;;;;;;5034759;28;20246;-81
2022/05/02 07:54:00;;;;;;;24.17;18.77;;;13.60;99.90;;;;;;5040379;28;20159;-80
2022/05/02 07:56:31;;;;;;;22.53;18.10;;;13.60;99.90;;;;;;5054191;28;20202;-80
2022/05/02 07:58:59;;;;;;;22.30;17.50;;;13.60;99.90;;;;;;5052055;28;20183;-79
2022/05/02 08:01:25;;;;;;;21.40;16.50;;;13.60;1.00;;;;;;5050946;28;20241;-80
2022/05/02 08:03:52;;;;;;;22.07;17.37;;;13.60;1.00;;;;;;5037078;28;20240;-80
2022/05/02 08:06:37;;;;;;;18.20;16.30;;;13.70;99.90;;;;;;5037006;28;20274;-79
2022/05/02 08:09:16;;;;;;;17.87;15.97;;;13.80;93.30;;;;;;5036424;28;20184;-83
2022/05/02 08:12:10;;;;;;;17.77;15.13;;;13.90;1.00;;;;;;5035598;28;20151;-82
2022/05/02 08:15:08;;;;;;;19.63;16.30;;;13.90;1.00;;;;;;5034390;28;20150;-82
2022/05/02 08:17:52;;;;;;;18.30;15.63;;;13.90;1.00;;;;;;5033582;28;20225;-81
2022/05/02 08:20:36;;;;;;;17.73;14.53;;;13.90;1.00;;;;;;5033994;28;20194;-83
2022/05/02 08:28:57;;;;;;;18.90;15.63;;;14.10;1.00;;;;;;5037140;28;20186;-82
2022/05/02 08:31:51;;;;;;;17.83;15.20;;;14.30;99.90;;;;;;5037525;28;20164;-84
2022/05/02 08:34:39;;;;;;;16.03;14.20;;;14.50;99.90;;;;;;5037407;28;20286;-80
2022/05/02 08:37:42;;;;;;;18.03;13.07;;;14.60;99.90;;;;;;5035589;28;20499;-80
2022/05/02 08:40:12;;;;;;;16.23;13.73;;;14.60;1.00;;;;;;5036817;28;20222;-82
2022/05/02 08:43:19;;;;;;;16.13;13.37;;;14.60;1.00;;;;;;5036573;28;20192;-83
2022/05/02 08:46:27;;;;;;;20.37;12.93;;;14.50;99.90;;;;;;5023529;28;20192;-83
2022/05/02 08:49:32;;;;;;;13.93;12.40;;;14.60;99.90;;;;;;5017141;28;20172;-82
2022/05/02 08:52:39;;;;;;;17.27;12.43;;;14.50;99.90;;;;;;5027291;28;20179;-83
2022/05/02 08:55:28;;;;;;;19.10;13.33;;;14.50;99.90;;;;;;5036711;28;20172;-81
2022/05/02 08:58:00;;;;;;;15.10;12.97;;;14.70;99.90;;;;;;5036768;28;20894;-81
2022/05/02 09:00:55;;;;;;;15.93;12.97;;;15.00;99.90;;;;;;5036710;28;20231;-79
2022/05/02 09:03:56;;;;;;;14.73;11.77;;;15.20;99.90;;;;;;5036103;28;20217;-83
2022/05/02 09:06:46;;;;;;;13.70;12.10;;;15.20;1.00;;;;;;4995490;28;20186;-82
2022/05/02 09:09:40;;;;;;;16.03;11.73;;;15.30;1.00;;;;;;5034619;28;20622;-80
2022/05/02 09:12:30;;;;;;;13.80;11.97;;;15.40;99.90;;;;;;5035233;28;20203;-81
2022/05/02 09:15:08;;;;;;;16.00;11.07;;;15.30;1.00;;;;;;5051572;28;20268;-82
2022/05/02 09:17:52;;;;;;;14.90;13.03;;;15.30;1.00;;;;;;5035895;28;20189;-79
2022/05/02 09:20:49;;;;;;;17.60;13.20;;;15.30;1.00;;;;;;5041848;28;20192;-81
2022/05/02 09:23:49;;;;;;;16.13;12.20;;;15.40;99.90;;;;;;5021666;28;20197;-78
2022/05/02 09:26:39;;;;;;;16.63;12.97;;;15.40;99.90;;;;;;5019483;28;20532;-84
2022/05/02 09:29:39;;;;;;;13.97;12.23;;;15.50;99.90;;;;;;5016197;28;20243;-80
2022/05/02 09:32:16;;;;;;;16.93;10.90;;;15.50;10.80;;;;;;4993511;28;20277;-82
2022/05/02 09:35:02;;;;;;;12.87;10.43;;;15.60;20.90;;;;;;5016894;28;20178;-81
2022/05/02 09:37:40;;;;;;;10.67;9.57;;;15.60;1.00;;;;;;5015581;28;20623;-80
2022/05/02 09:40:15;;;;;;;13.03;9.63;;;15.70;94.10;;;;;;5016535;28;20625;-79
2022/05/02 09:42:44;;;;;;;11.70;9.50;;;15.90;1.00;;;;;;5016695;28;20264;-82
2022/05/02 09:52:00;;;;;;;11.20;9.87;;;15.60;42.40;;;;;;5017502;28;20181;-81
2022/05/02 09:57:47;;;;;;;15.97;10.33;;;16.00;1.00;;;;;;5016484;28;20192;-79
2022/05/02 10:03:19;;;;;;;10.87;8.20;;;15.90;99.90;;;;;;5016711;28;20265;-82
2022/05/02 10:05:52;;;;;;;11.20;8.87;;;16.10;99.90;;;;;;5029431;28;20293;-84
2022/05/02 10:08:42;;;;;;;10.67;9.00;;;16.00;99.90;;;;;;5036901;28;20278;-81
2022/05/02 10:11:15;;;;;;;10.10;8.63;;;15.90;99.90;;;;;;5035854;28;20185;-80
2022/05/02 10:14:02;;;;;;;9.80;8.80;;;16.00;99.90;;;;;;5035789;28;20173;-81
2022/05/02 10:16:43;;;;;;;10.93;9.20;;;16.10;1.00;;;;;;5037522;28;20524;-82
2022/05/02 10:19:49;;;;;;;10.83;8.20;;;16.10;99.90;;;;;;5039477;28;20223;-80
2022/05/02 10:22:53;;;;;;;8.57;7.20;;;16.30;99.90;;;;;;5026601;28;20188;-79
2022/05/02 10:25:33;;;;;;;9.20;7.23;;;16.30;99.90;;;;;;5035792;28;20220;-80
2022/05/02 10:28:14;;;;;;;11.60;8.63;;;16.40;99.90;;;;;;5052052;28;20637;-82
2022/05/02 10:31:02;;;;;;;14.63;8.53;;;16.40;99.90;;;;;;5055065;28;20178;-79
2022/05/02 10:33:37;;;;;;;9.23;7.53;;;16.50;99.90;;;;;;5054307;28;20257;-81
2022/05/02 10:36:04;;;;;;;8.33;7.53;;;16.60;99.90;;;;;;5052333;28;20208;-78
2022/05/02 10:38:31;;;;;;;9.77;7.70;;;16.70;99.90;;;;;;5040117;28;20208;-83
2022/05/02 10:41:10;;;;;;;11.37;8.20;;;16.60;99.90;;;;;;5038944;28;20177;-82
2022/05/02 10:43:48;;;;;;;11.20;8.30;;;16.60;99.90;;;;;;5039528;28;20205;-81
2022/05/02 10:46:15;;;;;;;10.70;8.63;;;16.50;99.90;;;;;;5034075;28;20268;-79
2022/05/02 10:49:08;;;;;;;9.60;8.53;;;16.40;99.90;;;;;;5034189;28;20178;-78
2022/05/02 10:52:00;;;;;;;10.27;8.13;;;16.30;99.90;;;;;;5034307;28;20161;-81
2022/05/02 10:54:39;;;;;;;9.00;7.80;;;16.10;99.90;;;;;;5034995;28;20184;-82
2022/05/02 10:57:30;;;;;;;10.67;7.60;;;16.20;99.90;;;;;;5034529;28;20253;-82
2022/05/02 11:00:09;;;;;;;10.27;8.27;;;16.20;99.90;;;;;;5033255;28;20711;-82
2022/05/02 11:03:19;;;;;;;11.33;9.23;;;16.30;99.90;;;;;;5034976;28;20217;-78
2022/05/02 11:06:00;;;;;;;10.53;8.53;;;16.40;99.90;;;;;;5020335;28;20223;-80
2022/05/02 11:08:42;;;;;;;12.67;9.00;;;16.50;99.90;;;;;;5027304;28;20197;-81
2022/05/02 11:11:11;;;;;;;8.13;7.13;;;16.80;99.90;;;;;;5040644;28;20180;-81
2022/05/02 11:13:52;;;;;;;11.83;8.60;;;16.90;99.90;;;;;;5035408;28;20261;-80
2022/05/02 11:16:26;;;;;;;9.50;7.70;;;16.90;92.50;;;;;;5040244;28;20194;-80
2022/05/02 11:21:59;;;;;;;8.40;7.40;;;16.80;99.90;;;;;;5034434;28;20181;-82
2022/05/02 11:24:46;;;;;;;10.40;8.33;;;16.90;96.60;;;;;;5034105;28;20526;-82
2022/05/02 11:27:23;;;;;;;14.07;8.03;;;17.00;74.50;;;;;;5034067;28;20170;-81
2022/05/02 11:30:07;;;;;;;12.77;8.30;;;17.00;73.10;;;;;;5040306;28;20173;-82
2022/05/02 11:33:18;;;;;;;9.97;8.23;;;17.20;92.00;;;;;;5041759;28;20178;-79
2022/05/02 11:35:49;;;;;;;15.27;8.00;;;17.10;90.00;;;;;;5021438;28;20190;-80
2022/05/02 11:38:36;;;;;;;9.73;8.33;;;17.20;99.40;;;;;;5034251;28;20166;-82
2022/05/02 11:41:14;;;;;;;17.13;8.83;;;17.30;43.30;;;;;;5034036;28;20245;-83
2022/05/02 11:43:40;;;;;;;10.97;7.93;;;17.30;52.50;;;;;;5032616;28;20197;-80
2022/05/02 11:46:23;;;;;;;10.27;7.67;;;17.10;1.00;;;;;;5033864;28;20167;-83
2022/05/02 11:49:11;;;;;;;10.33;8.17;;;17.00;1.00;;;;;;5033415;28;20166;-80
2022/05/02 11:51:43;;;;;;;10.17;7.83;;;17.00;48.20;;;;;;5031880;28;20173;-83
2022/05/02 11:54:28;;;;;;;10.17;8.47;;;17.10;1.00;;;;;;5033834;28;20673;-78
2022/05/02 11:57:08;;;;;;;9.10;8.07;;;17.20;1.00;;;;;;5034324;28;20478;-81
2022/05/02 11:59:52;;;;;;;10.83;8.50;;;17.30;1.00;;;;;;5033734;28;20662;-81
2022/05/02 12:02:45;;;;;;;9.97;8.73;;;17.60;2.70;;;;;;5034831;28;20239;-82
2022/05/02 12:05:38;;;;;;;10.40;8.30;;;17.90;9.60;;;;;;5039219;28;20201;-83
2022/05/02 12:08:06;;;;;;;10.60;8.57;;;18.00;12.50;;;;;;5038667;28;20175;-81
2022/05/02 12:10:38;;;;;;;10.10;8.07;;;17.60;1.00;;;;;;5039441;28;20709;-83
2022/05/02 12:13:06;;;;;;;11.57;7.47;;;17.40;19.80;;;;;;5047514;28;20166;-81
2022/05/02 12:15:32;;;;;;;11.97;8.53;;;17.60;1.00;;;;;;5062569;28;20176;-83
2022/05/02 12:18:03;;;;;;;10.33;8.57;;;17.50;45.00;;;;;;5063984;28;20170;-78
2022/05/02 12:20:36;;;;;;;12.93;9.03;;;17.50;1.00;;;;;;5063490;28;20318;-80
2022/05/02 12:23:06;;;;;;;9.77;8.50;;;17.70;1.00;;;;;;5064609;28;20162;-80
2022/05/02 12:25:34;;;;;;;11.60;9.07;;;17.60;1.00;;;;;;5065188;28;20213;-79
2022/05/02 12:28:03;;;;;;;11.10;8.57;;;17.60;1.00;;;;;;5069713;28;20172;-81
2022/05/02 12:30:30;;;;;;;9.00;8.00;;;17.60;1.00;;;;;;5068141;28;20190;-79
2022/05/02 12:33:02;;;;;;;9.50;8.30;;;17.70;1.00;;;;;;5070214;28;20169;-78
2022/05/02 12:35:35;;;;;;;8.27;6.97;;;17.80;1.00;;;;;;5060346;28;20172;-82
2022/05/02 12:38:11;;;;;;;10.33;8.37;;;17.70;1.00;;;;;;5038903;28;20769;-80
2022/05/02 12:40:41;;;;;;;10.77;8.57;;;17.70;1.00;;;;;;5038262;28;20510;-82
2022/05/02 12:43:11;;;;;;;13.57;8.53;;;17.70;1.00;;;;;;5037771;28;20177;-79
2022/05/02 12:45:47;;;;;;;11.53;8.97;;;17.90;1.00;;;;;;5037524;28;20201;-82
2022/05/02 12:48:29;;;;;;;9.57;8.20;;;18.00;1.00;;;;;;5035358;28;20346;-80
2022/05/02 12:50:58;;;;;;;11.80;9.00;;;18.40;1.00;;;;;;5036739;28;20174;-80
2022/05/02 12:56:11;;;;;;;11.87;9.27;;;18.30;1.00;;;;;;5037075;28;20182;-83
2022/05/02 13:01:23;;;;;;;11.63;9.13;;;18.00;1.00;;;;;;5036865;28;20187;-81
2022/05/02 13:04:02;;;;;;;10.67;8.60;;;18.00;1.00;;;;;;5036032;28;20678;-78
2022/05/02 13:06:30;;;;;;;7.43;6.10;;;18.10;1.00;;;;;;5036326;28;20686;-80
2022/05/02 13:09:19;;;;;;;10.70;7.13;;;18.10;1.00;;;;;;5036358;28;20248;-80
2022/05/02 13:11:45;;;;;;;9.47;7.70;;;18.00;1.00;;;;;;5035957;28;20184;-83
2022/05/02 13:14:26;;;;;;;8.00;6.47;;;18.10;1.00;;;;;;5035448;28;20552;-84
2022/05/02 13:16:53;;;;;;;8.47;6.87;;;18.20;1.00;;;;;;5036244;28;20196;-83
2022/05/02 13:19:34;;;;;;;8.10;7.23;;;18.00;1.00;;;;;;5036616;28;20186;-83
2022/05/02 13:22:00;;;;;;;8.07;6.63;;;17.90;1.00;;;;;;5035920;28;20544;-82
2022/05/02 13:24:26;;;;;;;8.90;7.30;;;18.10;1.00;;;;;;5035924;28;20199;-82
2022/05/02 13:27:02;;;;;;;8.40;7.47;;;18.40;1.00;;;;;;5035922;28;20594;-83
2022/05/02 13:29:37;;;;;;;9.07;8.07;;;18.50;1.00;;;;;;5035879;28;20173;-80
2022/05/02 13:32:07;;;;;;;9.50;7.77;;;18.70;1.00;;;;;;5035574;28;20357;-82
2022/05/02 13:34:48;;;;;;;12.10;8.30;;;18.90;1.00;;;;;;5036206;28;20596;-82
2022/05/02 13:37:40;;;;;;;10.73;8.60;;;18.80;1.00;;;;;;5035394;28;20532;-83
2022/05/02 13:40:11;;;;;;;11.07;7.67;;;18.90;1.00;;;;;;5036078;28;20181;-82
2022/05/02 13:42:49;;;;;;;12.03;7.87;;;18.80;1.00;;;;;;5040643;28;20175;-80
2022/05/02 13:45:41;;;;;;;10.60;8.27;;;18.60;1.00;;;;;;5042593;28;20246;-81
2022/05/02 13:48:30;;;;;;;10.37;8.10;;;18.70;1.00;;;;;;5032021;28;20173;-82
2022/05/02 13:51:04;;;;;;;11.20;8.20;;;18.60;1.00;;;;;;5024597;28;20275;-84
2022/05/02 13:54:02;;;;;;;10.50;7.00;;;18.60;1.00;;;;;;5031829;28;20242;-83
2022/05/02 13:56:53;;;;;;;8.70;7.03;;;18.80;1.00;;;;;;5027751;28;20173;-83
2022/05/02 13:59:37;;;;;;;8.87;6.93;;;18.60;1.00;;;;;;5033875;28;20182;-81
2022/05/02 14:02:36;;;;;;;10.63;7.50;;;18.70;1.00;;;;;;5027640;28;20242;-78
2022/05/02 14:05:19;;;;;;;8.53;7.53;;;18.70;1.00;;;;;;5024194;28;20319;-84
2022/05/02 14:07:47;;;;;;;10.57;6.63;;;18.50;1.00;;;;;;5019347;28;20176;-81
2022/05/02 14:10:13;;;;;;;9.43;6.93;;;18.60;1.00;;;;;;5014342;28;20162;-81